sensor_id;sensor_type;location;lat;lon;timestamp;pressure;altitude;pressure_sealevel;temperature;humidity
36692;BME280;22678;52.052;4.242;2023-05-11T00:01:28;101484.22;;;13.56;94.09
36692;BME280;22678;52.052;4.242;2023-05-11T00:03:54;101486.00;;;13.54;93.53
36692;BME280;22678;52.052;4.242;2023-05-11T00:06:20;101489.53;;;13.51;93.95
36692;BME280;22678;52.052;4.242;2023-05-11T00:08:46;101484.28;;;13.49;94.20
36692;BME280;22678;52.052;4.242;2023-05-11T00:11:11;101482.53;;;13.48;94.10
36692;BME280;22678;52.052;4.242;2023-05-11T00:13:36;101494.84;;;13.49;94.37
36692;BME280;22678;52.052;4.242;2023-05-11T00:16:02;101481.66;;;13.48;94.07
36692;BME280;22678;52.052;4.242;2023-05-11T00:18:28;101489.59;;;13.46;94.56
36692;BME280;22678;52.052;4.242;2023-05-11T00:20:53;101479.97;;;13.41;94.70
36692;BME280;22678;52.052;4.242;2023-05-11T00:23:19;101486.09;;;13.44;94.59
36692;BME280;22678;52.052;4.242;2023-05-11T00:25:44;101480.84;;;13.41;95.07
36692;BME280;22678;52.052;4.242;2023-05-11T00:28:10;101479.97;;;13.39;95.05
36692;BME280;22678;52.052;4.242;2023-05-11T00:30:35;101493.13;;;13.44;95.18
36692;BME280;22678;52.052;4.242;2023-05-11T00:33:00;101480.00;;;13.38;95.05
36692;BME280;22678;52.052;4.242;2023-05-11T00:35:26;101490.53;;;13.39;95.21
36692;BME280;22678;52.052;4.242;2023-05-11T00:37:51;101473.00;;;13.27;95.51
36692;BME280;22678;52.052;4.242;2023-05-11T00:40:16;101483.50;;;13.33;95.47
36692;BME280;22678;52.052;4.242;2023-05-11T00:42:42;101490.59;;;13.35;95.20
36692;BME280;22678;52.052;4.242;2023-05-11T00:45:07;101492.34;;;13.32;95.36
36692;BME280;22678;52.052;4.242;2023-05-11T00:47:32;101498.53;;;13.35;95.37
36692;BME280;22678;52.052;4.242;2023-05-11T00:49:58;101493.25;;;13.30;95.44
36692;BME280;22678;52.052;4.242;2023-05-11T00:52:23;101482.72;;;13.27;95.52
36692;BME280;22678;52.052;4.242;2023-05-11T00:54:49;101483.56;;;13.27;95.86
36692;BME280;22678;52.052;4.242;2023-05-11T00:57:15;101497.66;;;13.31;95.89
36692;BME280;22678;52.052;4.242;2023-05-11T00:59:40;101486.19;;;13.29;96.23
36692;BME280;22678;52.052;4.242;2023-05-11T01:02:06;101483.59;;;13.24;96.30
36692;BME280;22678;52.052;4.242;2023-05-11T01:04:32;101493.25;;;13.28;96.45
36692;BME280;22678;52.052;4.242;2023-05-11T01:07:10;101491.50;;;13.29;96.44
36692;BME280;22678;52.052;4.242;2023-05-11T01:12:34;101495.00;;;13.28;96.67
36692;BME280;22678;52.052;4.242;2023-05-11T01:15:09;101499.44;;;13.27;96.91
36692;BME280;22678;52.052;4.242;2023-05-11T01:20:11;101496.78;;;13.27;96.76
36692;BME280;22678;52.052;4.242;2023-05-11T01:31:12;101489.81;;;13.19;96.97
36692;BME280;22678;52.052;4.242;2023-05-11T01:33:54;101500.38;;;13.19;97.48
36692;BME280;22678;52.052;4.242;2023-05-11T01:36:25;101491.63;;;13.13;97.25
36692;BME280;22678;52.052;4.242;2023-05-11T01:38:53;101494.25;;;13.15;97.35
36692;BME280;22678;52.052;4.242;2023-05-11T01:41:20;101489.91;;;13.08;97.50
36692;BME280;22678;52.052;4.242;2023-05-11T01:43:54;101457.50;;;12.89;97.55
36692;BME280;22678;52.052;4.242;2023-05-11T01:46:24;101497.75;;;13.17;97.64
36692;BME280;22678;52.052;4.242;2023-05-11T01:48:51;101501.28;;;13.18;97.91
36692;BME280;22678;52.052;4.242;2023-05-11T01:51:18;101498.66;;;13.18;97.87
36692;BME280;22678;52.052;4.242;2023-05-11T01:53:45;101505.66;;;13.19;97.86
36692;BME280;22678;52.052;4.242;2023-05-11T01:56:11;101493.34;;;13.19;98.03
36692;BME280;22678;52.052;4.242;2023-05-11T01:58:37;101499.50;;;13.18;97.92
36692;BME280;22678;52.052;4.242;2023-05-11T02:01:04;101503.00;;;13.20;97.68
36692;BME280;22678;52.052;4.242;2023-05-11T02:03:31;101486.41;;;13.09;97.94
36692;BME280;22678;52.052;4.242;2023-05-11T02:05:59;101504.81;;;13.15;97.88
36692;BME280;22678;52.052;4.242;2023-05-11T02:08:28;101496.00;;;13.14;98.09
36692;BME280;22678;52.052;4.242;2023-05-11T02:10:55;101497.78;;;13.12;98.20
36692;BME280;22678;52.052;4.242;2023-05-11T02:13:22;101460.16;;;12.89;98.13
36692;BME280;22678;52.052;4.242;2023-05-11T02:15:51;101502.19;;;13.13;97.92
36692;BME280;22678;52.052;4.242;2023-05-11T02:18:18;101495.19;;;13.09;98.03
36692;BME280;22678;52.052;4.242;2023-05-11T02:20:44;101497.78;;;13.14;98.41
36692;BME280;22678;52.052;4.242;2023-05-11T02:23:11;101495.16;;;13.11;98.25
36692;BME280;22678;52.052;4.242;2023-05-11T02:25:39;101502.19;;;13.13;98.43
36692;BME280;22678;52.052;4.242;2023-05-11T02:28:05;101503.09;;;13.11;98.27
36692;BME280;22678;52.052;4.242;2023-05-11T02:30:31;101503.97;;;13.08;98.20
36692;BME280;22678;52.052;4.242;2023-05-11T02:33:03;101503.97;;;13.08;98.43
36692;BME280;22678;52.052;4.242;2023-05-11T02:35:32;101502.25;;;13.07;98.51
36692;BME280;22678;52.052;4.242;2023-05-11T02:38:01;101504.91;;;13.04;98.28
36692;BME280;22678;52.052;4.242;2023-05-11T02:40:29;101496.97;;;13.04;98.58
36692;BME280;22678;52.052;4.242;2023-05-11T02:42:59;101492.59;;;13.03;98.47
36692;BME280;22678;52.052;4.242;2023-05-11T02:45:30;101488.22;;;12.99;98.64
36692;BME280;22678;52.052;4.242;2023-05-11T02:47:57;101506.63;;;13.07;98.51
36692;BME280;22678;52.052;4.242;2023-05-11T02:50:23;101500.50;;;13.06;98.82
36692;BME280;22678;52.052;4.242;2023-05-11T02:52:54;101497.91;;;13.02;98.72
36692;BME280;22678;52.052;4.242;2023-05-11T02:55:21;101507.53;;;13.04;98.65
36692;BME280;22678;52.052;4.242;2023-05-11T02:57:47;101490.00;;;12.94;98.80
36692;BME280;22678;52.052;4.242;2023-05-11T03:00:13;101503.19;;;13.02;98.83
36692;BME280;22678;52.052;4.242;2023-05-11T03:02:38;101499.66;;;13.00;98.87
36692;BME280;22678;52.052;4.242;2023-05-11T03:05:04;101512.84;;;13.01;98.91
36692;BME280;22678;52.052;4.242;2023-05-11T03:07:31;101504.97;;;12.95;99.06
36692;BME280;22678;52.052;4.242;2023-05-11T03:09:57;101508.47;;;12.99;99.09
36692;BME280;22678;52.052;4.242;2023-05-11T03:12:22;101505.84;;;12.97;99.42
36692;BME280;22678;52.052;4.242;2023-05-11T03:14:48;101516.38;;;13.03;99.34
36692;BME280;22678;52.052;4.242;2023-05-11T03:17:14;101513.75;;;12.99;99.26
36692;BME280;22678;52.052;4.242;2023-05-11T03:19:41;101507.59;;;12.98;99.52
36692;BME280;22678;52.052;4.242;2023-05-11T03:22:07;101514.59;;;13.02;99.51
36692;BME280;22678;52.052;4.242;2023-05-11T03:24:34;101511.97;;;13.02;99.64
36692;BME280;22678;52.052;4.242;2023-05-11T03:27:00;101504.06;;;12.99;99.51
36692;BME280;22678;52.052;4.242;2023-05-11T03:29:28;101495.28;;;12.95;99.87
36692;BME280;22678;52.052;4.242;2023-05-11T03:31:55;101503.22;;;12.97;99.81
36692;BME280;22678;52.052;4.242;2023-05-11T03:34:20;101502.31;;;12.98;99.92
36692;BME280;22678;52.052;4.242;2023-05-11T03:36:47;101505.84;;;13.00;100.00
36692;BME280;22678;52.052;4.242;2023-05-11T03:39:14;101485.63;;;12.93;99.75
36692;BME280;22678;52.052;4.242;2023-05-11T03:41:41;101493.56;;;12.93;100.00
36692;BME280;22678;52.052;4.242;2023-05-11T03:44:09;101500.56;;;12.97;99.77
36692;BME280;22678;52.052;4.242;2023-05-11T03:46:37;101502.34;;;12.95;100.00
36692;BME280;22678;52.052;4.242;2023-05-11T03:49:04;101501.47;;;12.93;99.98
36692;BME280;22678;52.052;4.242;2023-05-11T03:51:31;101498.84;;;12.93;100.00
36692;BME280;22678;52.052;4.242;2023-05-11T03:53:57;101501.44;;;12.96;100.00
36692;BME280;22678;52.052;4.242;2023-05-11T03:56:23;101484.78;;;12.88;100.00
36692;BME280;22678;52.052;4.242;2023-05-11T03:58:48;101498.84;;;12.93;100.00
36692;BME280;22678;52.052;4.242;2023-05-11T04:01:14;101485.66;;;12.90;100.00
36692;BME280;22678;52.052;4.242;2023-05-11T04:03:51;101491.78;;;12.92;100.00
36692;BME280;22678;52.052;4.242;2023-05-11T04:06:17;101496.19;;;12.94;100.00
36692;BME280;22678;52.052;4.242;2023-05-11T04:08:43;101496.19;;;12.93;100.00
36692;BME280;22678;52.052;4.242;2023-05-11T04:11:09;101496.22;;;12.91;100.00
36692;BME280;22678;52.052;4.242;2023-05-11T04:13:34;101500.56;;;12.94;100.00
36692;BME280;22678;52.052;4.242;2023-05-11T04:15:59;101483.06;;;12.87;100.00
36692;BME280;22678;52.052;4.242;2023-05-11T04:18:25;101480.41;;;12.84;100.00
36692;BME280;22678;52.052;4.242;2023-05-11T04:20:50;101494.44;;;12.92;100.00
36692;BME280;22678;52.052;4.242;2023-05-11T04:23:15;101490.09;;;12.85;100.00
36692;BME280;22678;52.052;4.242;2023-05-11T04:25:41;101493.59;;;12.90;100.00
36692;BME280;22678;52.052;4.242;2023-05-11T04:28:06;101497.13;;;12.86;100.00
36692;BME280;22678;52.052;4.242;2023-05-11T04:30:31;101494.47;;;12.87;100.00
36692;BME280;22678;52.052;4.242;2023-05-11T04:32:56;101502.34;;;12.92;100.00
36692;BME280;22678;52.052;4.242;2023-05-11T04:35:22;101499.72;;;12.92;100.00
36692;BME280;22678;52.052;4.242;2023-05-11T04:37:49;101512.03;;;12.94;100.00
36692;BME280;22678;52.052;4.242;2023-05-11T04:40:14;101488.34;;;12.87;100.00
36692;BME280;22678;52.052;4.242;2023-05-11T04:42:39;101497.06;;;12.92;100.00
36692;BME280;22678;52.052;4.242;2023-05-11T04:45:05;101502.34;;;12.95;100.00
36692;BME280;22678;52.052;4.242;2023-05-11T04:47:30;101511.13;;;12.97;100.00
36692;BME280;22678;52.052;4.242;2023-05-11T04:49:56;101470.81;;;12.73;100.00
36692;BME280;22678;52.052;4.242;2023-05-11T04:52:21;101496.22;;;12.91;100.00
36692;BME280;22678;52.052;4.242;2023-05-11T04:54:46;101514.63;;;13.01;100.00
36692;BME280;22678;52.052;4.242;2023-05-11T04:57:12;101516.38;;;13.03;100.00
36692;BME280;22678;52.052;4.242;2023-05-11T04:59:37;101514.59;;;13.02;100.00
36692;BME280;22678;52.052;4.242;2023-05-11T05:02:02;101483.03;;;12.84;100.00
36692;BME280;22678;52.052;4.242;2023-05-11T05:04:28;101516.38;;;13.03;100.00
36692;BME280;22678;52.052;4.242;2023-05-11T05:06:53;101511.09;;;13.00;100.00
36692;BME280;22678;52.052;4.242;2023-05-11T05:09:18;101523.38;;;13.07;100.00
36692;BME280;22678;52.052;4.242;2023-05-11T05:11:44;101526.00;;;13.10;100.00
36692;BME280;22678;52.052;4.242;2023-05-11T05:14:09;101511.94;;;13.04;100.00
36692;BME280;22678;52.052;4.242;2023-05-11T05:16:35;101520.69;;;13.12;100.00
36692;BME280;22678;52.052;4.242;2023-05-11T05:19:00;101513.75;;;13.00;100.00
36692;BME280;22678;52.052;4.242;2023-05-11T05:21:25;101530.38;;;13.08;100.00
36692;BME280;22678;52.052;4.242;2023-05-11T05:23:51;101541.84;;;13.10;100.00
36692;BME280;22678;52.052;4.242;2023-05-11T05:26:16;101536.53;;;13.12;100.00
36692;BME280;22678;52.052;4.242;2023-05-11T05:28:41;101539.22;;;13.09;100.00
36692;BME280;22678;52.052;4.242;2023-05-11T05:31:06;101547.94;;;13.15;100.00
36692;BME280;22678;52.052;4.242;2023-05-11T05:33:32;101547.09;;;13.12;100.00
36692;BME280;22678;52.052;4.242;2023-05-11T05:35:57;101552.34;;;13.17;100.00
36692;BME280;22678;52.052;4.242;2023-05-11T05:38:23;101555.84;;;13.19;100.00
36692;BME280;22678;52.052;4.242;2023-05-11T05:40:48;101558.47;;;13.19;100.00
36692;BME280;22678;52.052;4.242;2023-05-11T05:43:13;101546.19;;;13.14;100.00
36692;BME280;22678;52.052;4.242;2023-05-11T05:45:38;101559.38;;;13.21;100.00
36692;BME280;22678;52.052;4.242;2023-05-11T05:48:04;101563.72;;;13.25;100.00
36692;BME280;22678;52.052;4.242;2023-05-11T05:50:31;101568.97;;;13.31;100.00
36692;BME280;22678;52.052;4.242;2023-05-11T05:52:56;101571.63;;;13.29;100.00
36692;BME280;22678;52.052;4.242;2023-05-11T05:55:22;101579.53;;;13.34;100.00
36692;BME280;22678;52.052;4.242;2023-05-11T05:57:48;101575.09;;;13.33;100.00
36692;BME280;22678;52.052;4.242;2023-05-11T06:00:13;101576.84;;;13.39;100.00
36692;BME280;22678;52.052;4.242;2023-05-11T06:02:39;101571.59;;;13.37;100.00
36692;BME280;22678;52.052;4.242;2023-05-11T06:05:05;101567.16;;;13.39;100.00
36692;BME280;22678;52.052;4.242;2023-05-11T06:07:31;101580.28;;;13.48;100.00
36692;BME280;22678;52.052;4.242;2023-05-11T06:09:57;101582.00;;;13.53;100.00
36692;BME280;22678;52.052;4.242;2023-05-11T06:12:22;101579.34;;;13.56;100.00
36692;BME280;22678;52.052;4.242;2023-05-11T06:14:48;101579.34;;;13.56;100.00
36692;BME280;22678;52.052;4.242;2023-05-11T06:17:13;101582.84;;;13.61;100.00
36692;BME280;22678;52.052;4.242;2023-05-11T06:19:38;101575.81;;;13.57;100.00
36692;BME280;22678;52.052;4.242;2023-05-11T06:22:04;101589.81;;;13.68;100.00
36692;BME280;22678;52.052;4.242;2023-05-11T06:24:30;101587.16;;;13.70;100.00
36692;BME280;22678;52.052;4.242;2023-05-11T06:26:55;101583.59;;;13.75;100.00
36692;BME280;22678;52.052;4.242;2023-05-11T06:29:21;101593.25;;;13.81;100.00
36692;BME280;22678;52.052;4.242;2023-05-11T06:31:47;101588.81;;;13.81;100.00
36692;BME280;22678;52.052;4.242;2023-05-11T06:34:20;101584.38;;;13.83;100.00
36692;BME280;22678;52.052;4.242;2023-05-11T06:36:46;101591.38;;;13.88;100.00
36692;BME280;22678;52.052;4.242;2023-05-11T06:39:12;101583.44;;;13.89;100.00
36692;BME280;22678;52.052;4.242;2023-05-11T06:41:37;101585.19;;;13.92;100.00
36692;BME280;22678;52.052;4.242;2023-05-11T06:44:03;101586.91;;;13.96;100.00
36692;BME280;22678;52.052;4.242;2023-05-11T06:46:28;101597.41;;;14.02;100.00
36692;BME280;22678;52.052;4.242;2023-05-11T06:48:53;101595.63;;;14.02;100.00
36692;BME280;22678;52.052;4.242;2023-05-11T06:51:19;101598.22;;;14.07;100.00
36692;BME280;22678;52.052;4.242;2023-05-11T06:53:46;101596.47;;;14.09;100.00
36692;BME280;22678;52.052;4.242;2023-05-11T06:56:11;101577.16;;;14.01;100.00
36692;BME280;22678;52.052;4.242;2023-05-11T06:58:36;101592.00;;;14.14;100.00
36692;BME280;22678;52.052;4.242;2023-05-11T07:01:02;101599.91;;;14.14;100.00
36692;BME280;22678;52.052;4.242;2023-05-11T07:03:29;101592.88;;;14.15;100.00
36692;BME280;22678;52.052;4.242;2023-05-11T07:05:55;101595.50;;;14.16;100.00
36692;BME280;22678;52.052;4.242;2023-05-11T07:08:20;101605.19;;;14.17;100.00
36692;BME280;22678;52.052;4.242;2023-05-11T07:10:46;101600.84;;;14.10;100.00
36692;BME280;22678;52.052;4.242;2023-05-11T07:13:11;101610.53;;;14.13;100.00
36692;BME280;22678;52.052;4.242;2023-05-11T07:15:36;101605.19;;;14.17;100.00
36692;BME280;22678;52.052;4.242;2023-05-11T07:18:02;101593.72;;;14.17;100.00
36692;BME280;22678;52.052;4.242;2023-05-11T07:20:27;101605.97;;;14.26;100.00
36692;BME280;22678;52.052;4.242;2023-05-11T07:22:57;101614.72;;;14.34;100.00
36692;BME280;22678;52.052;4.242;2023-05-11T07:25:25;101605.88;;;14.35;100.00
36692;BME280;22678;52.052;4.242;2023-05-11T07:27:51;101613.72;;;14.41;100.00
36692;BME280;22678;52.052;4.242;2023-05-11T07:30:16;101615.47;;;14.42;100.00
36692;BME280;22678;52.052;4.242;2023-05-11T07:32:42;101611.06;;;14.41;100.00
36692;BME280;22678;52.052;4.242;2023-05-11T07:35:07;101626.00;;;14.48;100.00
36692;BME280;22678;52.052;4.242;2023-05-11T07:37:33;101606.69;;;14.40;100.00
36692;BME280;22678;52.052;4.242;2023-05-11T07:39:58;101620.81;;;14.39;100.00
36692;BME280;22678;52.052;4.242;2023-05-11T07:42:23;101627.84;;;14.42;100.00
36692;BME280;22678;52.052;4.242;2023-05-11T07:44:48;101614.63;;;14.40;100.00
36692;BME280;22678;52.052;4.242;2023-05-11T07:47:14;101626.94;;;14.46;100.00
36692;BME280;22678;52.052;4.242;2023-05-11T07:49:40;101621.72;;;14.36;100.00
36692;BME280;22678;52.052;4.242;2023-05-11T07:52:06;101632.22;;;14.43;100.00
36692;BME280;22678;52.052;4.242;2023-05-11T07:54:31;101619.94;;;14.39;100.00
36692;BME280;22678;52.052;4.242;2023-05-11T07:56:56;101610.19;;;14.42;100.00
36692;BME280;22678;52.052;4.242;2023-05-11T07:59:22;101611.97;;;14.43;100.00
36692;BME280;22678;52.052;4.242;2023-05-11T08:01:47;101626.78;;;14.57;100.00
36692;BME280;22678;52.052;4.242;2023-05-11T08:04:12;101629.38;;;14.63;100.00
36692;BME280;22678;52.052;4.242;2023-05-11T08:06:38;101618.81;;;14.60;100.00
36692;BME280;22678;52.052;4.242;2023-05-11T08:09:03;101629.22;;;14.75;100.00
36692;BME280;22678;52.052;4.242;2023-05-11T08:11:29;101608.88;;;14.79;100.00
36692;BME280;22678;52.052;4.242;2023-05-11T08:13:54;101625.44;;;14.95;100.00
36692;BME280;22678;52.052;4.242;2023-05-11T08:16:19;101630.56;;;15.07;100.00
36692;BME280;22678;52.052;4.242;2023-05-11T08:18:45;101629.50;;;15.19;100.00
36692;BME280;22678;52.052;4.242;2023-05-11T08:21:10;101610.03;;;15.21;100.00
36692;BME280;22678;52.052;4.242;2023-05-11T08:23:36;101629.25;;;15.37;100.00
36692;BME280;22678;52.052;4.242;2023-05-11T08:26:01;101635.25;;;15.47;100.00
36692;BME280;22678;52.052;4.242;2023-05-11T08:28:27;101630.00;;;15.44;100.00
36692;BME280;22678;52.052;4.242;2023-05-11T08:30:56;101635.25;;;15.47;100.00
36692;BME280;22678;52.052;4.242;2023-05-11T08:33:22;101648.47;;;15.50;100.00
36692;BME280;22678;52.052;4.242;2023-05-11T08:35:48;101626.41;;;15.48;100.00
36692;BME280;22678;52.052;4.242;2023-05-11T08:38:13;101637.75;;;15.58;100.00
36692;BME280;22678;52.052;4.242;2023-05-11T08:40:39;101640.22;;;15.69;100.00
36692;BME280;22678;52.052;4.242;2023-05-11T08:43:12;101619.03;;;15.67;99.83
36692;BME280;22678;52.052;4.242;2023-05-11T08:45:40;101622.38;;;15.80;99.68
36692;BME280;22678;52.052;4.242;2023-05-11T08:48:07;101636.28;;;15.94;98.88
36692;BME280;22678;52.052;4.242;2023-05-11T08:50:33;101636.28;;;15.94;98.57
36692;BME280;22678;52.052;4.242;2023-05-11T08:52:58;101640.63;;;15.97;97.13
36692;BME280;22678;52.052;4.242;2023-05-11T08:55:25;101639.78;;;15.95;96.65
36692;BME280;22678;52.052;4.242;2023-05-11T08:57:52;101632.75;;;15.92;96.03
36692;BME280;22678;52.052;4.242;2023-05-11T09:00:17;101635.38;;;15.94;95.76
36692;BME280;22678;52.052;4.242;2023-05-11T09:02:44;101643.19;;;16.02;95.67
36692;BME280;22678;52.052;4.242;2023-05-11T09:05:10;101637.81;;;16.08;95.74
36692;BME280;22678;52.052;4.242;2023-05-11T09:07:37;101630.44;;;16.22;96.12
36692;BME280;22678;52.052;4.242;2023-05-11T09:10:06;101644.03;;;16.52;95.56
36692;BME280;22678;52.052;4.242;2023-05-11T09:12:32;101642.56;;;16.79;95.30
36692;BME280;22678;52.052;4.242;2023-05-11T09:14:57;101642.88;;;17.08;93.86
36692;BME280;22678;52.052;4.242;2023-05-11T09:17:22;101641.00;;;17.49;92.99
36692;BME280;22678;52.052;4.242;2023-05-11T09:20:01;101632.34;;;17.77;90.31
36692;BME280;22678;52.052;4.242;2023-05-11T09:22:34;101641.75;;;17.93;88.08
36692;BME280;22678;52.052;4.242;2023-05-11T09:25:05;101640.50;;;18.07;87.26
36692;BME280;22678;52.052;4.242;2023-05-11T09:27:31;101641.41;;;18.06;85.98
36692;BME280;22678;52.052;4.242;2023-05-11T09:30:09;101627.56;;;17.91;85.77
36692;BME280;22678;52.052;4.242;2023-05-11T09:32:50;101644.59;;;17.84;85.63
36692;BME280;22678;52.052;4.242;2023-05-11T09:35:26;101639.53;;;17.73;85.70
36692;BME280;22678;52.052;4.242;2023-05-11T09:38:01;101638.69;;;17.73;86.32
36692;BME280;22678;52.052;4.242;2023-05-11T09:40:28;101644.16;;;18.02;84.51
36692;BME280;22678;52.052;4.242;2023-05-11T09:42:53;101635.97;;;18.42;84.15
36692;BME280;22678;52.052;4.242;2023-05-11T09:45:41;101643.38;;;18.93;82.88
36692;BME280;22678;52.052;4.242;2023-05-11T09:48:30;101641.84;;;19.14;81.52
36692;BME280;22678;52.052;4.242;2023-05-11T09:51:04;101638.84;;;18.97;80.89
36692;BME280;22678;52.052;4.242;2023-05-11T09:53:41;101645.56;;;18.79;80.60
36692;BME280;22678;52.052;4.242;2023-05-11T09:56:08;101623.22;;;18.83;79.21
36692;BME280;22678;52.052;4.242;2023-05-11T09:58:44;101637.69;;;19.05;74.43
36692;BME280;22678;52.052;4.242;2023-05-11T10:01:10;101632.66;;;19.24;74.47
36692;BME280;22678;52.052;4.242;2023-05-11T10:03:47;101634.25;;;19.57;74.76
36692;BME280;22678;52.052;4.242;2023-05-11T10:06:13;101637.59;;;19.90;74.81
36692;BME280;22678;52.052;4.242;2023-05-11T10:08:38;101639.56;;;20.10;73.89
36692;BME280;22678;52.052;4.242;2023-05-11T10:11:05;101629.22;;;20.26;73.31
36692;BME280;22678;52.052;4.242;2023-05-11T10:13:32;101640.03;;;20.47;72.68
36692;BME280;22678;52.052;4.242;2023-05-11T10:15:58;101635.91;;;20.62;71.71
36692;BME280;22678;52.052;4.242;2023-05-11T10:18:26;101625.34;;;20.59;70.71
36692;BME280;22678;52.052;4.242;2023-05-11T10:20:51;101623.31;;;20.67;69.62
36692;BME280;22678;52.052;4.242;2023-05-11T10:23:17;101634.19;;;20.85;69.32
36692;BME280;22678;52.052;4.242;2023-05-11T10:25:43;101644.97;;;21.05;69.27
36692;BME280;22678;52.052;4.242;2023-05-11T10:28:09;101639.16;;;21.17;67.82
36692;BME280;22678;52.052;4.242;2023-05-11T10:30:35;101642.03;;;21.35;67.64
36692;BME280;22678;52.052;4.242;2023-05-11T10:33:01;101628.13;;;21.47;65.86
36692;BME280;22678;52.052;4.242;2023-05-11T10:35:27;101640.91;;;21.63;63.04
36692;BME280;22678;52.052;4.242;2023-05-11T10:37:53;101641.03;;;21.60;60.98
36692;BME280;22678;52.052;4.242;2023-05-11T10:40:19;101637.03;;;21.70;62.34
36692;BME280;22678;52.052;4.242;2023-05-11T10:52:17;101639.97;;;21.64;62.01
36692;BME280;22678;52.052;4.242;2023-05-11T10:57:57;101632.41;;;21.53;62.98
36692;BME280;22678;52.052;4.242;2023-05-11T11:03:08;101637.50;;;21.59;61.53
36692;BME280;22678;52.052;4.242;2023-05-11T11:05:34;101635.38;;;21.45;61.52
36692;BME280;22678;52.052;4.242;2023-05-11T11:08:02;101638.03;;;21.45;62.15
36692;BME280;22678;52.052;4.242;2023-05-11T11:10:40;101636.28;;;21.44;62.65
36692;BME280;22678;52.052;4.242;2023-05-11T11:13:11;101640.34;;;21.32;62.06
36692;BME280;22678;52.052;4.242;2023-05-11T11:18:25;101643.59;;;20.95;61.84
36692;BME280;22678;52.052;4.242;2023-05-11T11:20:52;101643.91;;;20.87;62.26
36692;BME280;22678;52.052;4.242;2023-05-11T11:23:50;101648.75;;;20.77;61.67
36692;BME280;22678;52.052;4.242;2023-05-11T11:26:45;101637.59;;;20.66;62.51
36692;BME280;22678;52.052;4.242;2023-05-11T11:29:11;101630.81;;;20.56;62.66
36692;BME280;22678;52.052;4.242;2023-05-11T11:31:37;101631.06;;;20.50;63.08
36692;BME280;22678;52.052;4.242;2023-05-11T11:34:30;101641.84;;;20.46;62.88
36692;BME280;22678;52.052;4.242;2023-05-11T11:39:32;101632.53;;;20.33;64.07
36692;BME280;22678;52.052;4.242;2023-05-11T11:42:33;101649.16;;;20.41;64.30
36692;BME280;22678;52.052;4.242;2023-05-11T11:45:24;101648.22;;;20.42;63.61
36692;BME280;22678;52.052;4.242;2023-05-11T11:48:10;101657.97;;;20.43;63.31
36692;BME280;22678;52.052;4.242;2023-05-11T11:50:38;101650.78;;;20.45;63.16
36692;BME280;22678;52.052;4.242;2023-05-11T11:53:04;101664.78;;;20.52;63.17
36692;BME280;22678;52.052;4.242;2023-05-11T11:55:49;101675.09;;;20.63;63.28
36692;BME280;22678;52.052;4.242;2023-05-11T12:01:07;101663.03;;;20.76;63.68
36692;BME280;22678;52.052;4.242;2023-05-11T12:03:37;101649.56;;;20.79;63.74
36692;BME280;22678;52.052;4.242;2023-05-11T12:06:06;101660.13;;;20.82;63.72
36692;BME280;22678;52.052;4.242;2023-05-11T12:08:34;101640.03;;;20.72;63.51
36692;BME280;22678;52.052;4.242;2023-05-11T12:11:01;101666.56;;;20.77;63.01
36692;BME280;22678;52.052;4.242;2023-05-11T12:13:27;101656.84;;;20.74;62.65
36692;BME280;22678;52.052;4.242;2023-05-11T12:16:15;101664.19;;;20.69;62.35
36692;BME280;22678;52.052;4.242;2023-05-11T12:18:42;101651.75;;;20.68;62.42
36692;BME280;22678;52.052;4.242;2023-05-11T12:21:29;101656.97;;;20.71;62.32
36692;BME280;22678;52.052;4.242;2023-05-11T12:24:00;101656.06;;;20.72;62.29
36692;BME280;22678;52.052;4.242;2023-05-11T12:26:27;101658.59;;;20.75;61.86
36692;BME280;22678;52.052;4.242;2023-05-11T12:29:13;101648.97;;;20.71;61.63
36692;BME280;22678;52.052;4.242;2023-05-11T12:31:40;101645.50;;;20.69;61.26
36692;BME280;22678;52.052;4.242;2023-05-11T12:34:12;101644.63;;;20.69;61.40
36692;BME280;22678;52.052;4.242;2023-05-11T12:36:38;101644.44;;;20.73;61.91
36692;BME280;22678;52.052;4.242;2023-05-11T12:39:03;101653.16;;;20.78;61.53
36692;BME280;22678;52.052;4.242;2023-05-11T12:41:28;101653.03;;;20.81;61.14
36692;BME280;22678;52.052;4.242;2023-05-11T12:43:54;101644.94;;;20.83;61.04
36692;BME280;22678;52.052;4.242;2023-05-11T12:46:21;101649.25;;;20.87;60.88
36692;BME280;22678;52.052;4.242;2023-05-11T12:48:47;101652.63;;;20.92;61.25
36692;BME280;22678;52.052;4.242;2023-05-11T12:51:37;101643.84;;;20.89;60.70
36692;BME280;22678;52.052;4.242;2023-05-11T12:53:58;101647.34;;;20.91;61.06
36692;BME280;22678;52.052;4.242;2023-05-11T12:56:24;101643.66;;;20.93;60.84
36692;BME280;22678;52.052;4.242;2023-05-11T12:58:49;101648.03;;;20.96;61.48
36692;BME280;22678;52.052;4.242;2023-05-11T13:01:14;101647.16;;;20.95;61.09
36692;BME280;22678;52.052;4.242;2023-05-11T13:03:44;101662.38;;;20.93;60.85
36692;BME280;22678;52.052;4.242;2023-05-11T13:06:10;101647.56;;;20.85;60.95
36692;BME280;22678;52.052;4.242;2023-05-11T13:08:43;101649.03;;;20.70;60.73
36692;BME280;22678;52.052;4.242;2023-05-11T13:11:35;101651.16;;;20.60;60.80
36692;BME280;22678;52.052;4.242;2023-05-11T13:14:14;101646.19;;;20.49;61.26
36692;BME280;22678;52.052;4.242;2023-05-11T13:16:51;101644.03;;;20.35;61.26
36692;BME280;22678;52.052;4.242;2023-05-11T13:19:26;101652.91;;;20.36;61.90
36692;BME280;22678;52.052;4.242;2023-05-11T13:21:53;101658.31;;;20.34;62.24
36692;BME280;22678;52.052;4.242;2023-05-11T13:24:19;101651.31;;;20.30;62.27
36692;BME280;22678;52.052;4.242;2023-05-11T13:26:45;101653.09;;;20.31;62.75